KSNY

Sidney Municipal / Lloyd W Carr Field Airport

Sidney, Nebraska, USA
METAR KSNY 200453Z AUTO 01007KT 10SM BKN004 15/14 A3011 RMK AO2 PRESRR SLP161 T01500144
Observed Flight Rules
Jun-20 @ 04:53 UTC (48 minutes ago) Instrument Flight Rules
Wind Visibility Clouds
10° at 7 knots 10 miles
  • Broken at 400' AGL
Temperatures Readings
Current 15°C / 59°F
Dewpoint 14°C / 57°F
Humidity 94%
Altimeter 30.11" Hg
Pressure 1016.1 hPa
Elevation 1307
METAR KSNY 200453Z AUTO 01007KT 10SM BKN004 15/14 A3011 RMK AO2 PRESRR SLP161 T01500144
Observed Flight Rules
Jun-20 @ 04:53 UTC
(48 minutes ago)
LIFR
Wind Visibility
10° at 7 knots 10 miles
Clouds
  • Broken at 400' AGL
Temperature Dewpoint
15°C / 59°F 14°C / 57°F
Humidity Altimeter Pressure
94% 30.11" Hg 1016.1 hPa